createdAt,value
2023-01-04T00:01:11.949Z,5.10
2023-01-04T00:03:40.494Z,4.85
2023-01-04T00:06:08.376Z,4.82
2023-01-04T00:08:35.409Z,5.75
2023-01-04T00:11:03.037Z,5.45
2023-01-04T00:13:30.356Z,4.18
2023-01-04T00:16:01.107Z,4.75
2023-01-04T00:18:32.189Z,4.32
2023-01-04T00:21:08.617Z,4.13
2023-01-04T00:23:35.345Z,4.22
2023-01-04T00:26:02.079Z,4.45
2023-01-04T00:28:28.774Z,3.90
2023-01-04T00:30:55.475Z,3.97
2023-01-04T00:33:22.220Z,4.40
2023-01-04T00:35:48.906Z,3.83
2023-01-04T00:38:16.927Z,3.97
2023-01-04T00:40:43.652Z,4.40
2023-01-04T00:43:10.362Z,4.25
2023-01-04T00:45:37.074Z,3.92
2023-01-04T00:48:04.100Z,4.72
2023-01-04T00:50:30.795Z,3.83
2023-01-04T00:52:57.486Z,4.28
2023-01-04T00:55:25.539Z,4.82
2023-01-04T00:57:52.245Z,4.55
2023-01-04T01:00:19.089Z,4.38
2023-01-04T01:02:45.913Z,4.45
2023-01-04T01:05:12.750Z,3.65
2023-01-04T01:07:39.466Z,4.30
2023-01-04T01:10:07.217Z,3.85
2023-01-04T01:12:35.302Z,4.00
2023-01-04T01:15:02.078Z,4.18
2023-01-04T01:17:28.789Z,4.07
2023-01-04T01:19:55.488Z,4.85
2023-01-04T01:22:22.214Z,4.20
2023-01-04T01:24:48.937Z,4.63
2023-01-04T01:27:15.663Z,4.55
2023-01-04T01:29:43.896Z,3.75
2023-01-04T01:32:10.591Z,4.75
2023-01-04T01:34:37.302Z,4.78
2023-01-04T01:37:04.050Z,4.30
2023-01-04T01:39:30.763Z,4.47
2023-01-04T01:41:57.515Z,4.60
2023-01-04T01:45:01.194Z,4.53
2023-01-04T01:47:37.423Z,5.00
2023-01-04T01:50:08.759Z,5.07
2023-01-04T01:52:38.626Z,5.05
2023-01-04T01:55:09.293Z,4.63
2023-01-04T01:57:37.849Z,5.40
2023-01-04T02:00:09.097Z,5.88
2023-01-04T02:02:36.537Z,4.93
2023-01-04T02:05:03.657Z,5.13
2023-01-04T02:07:30.717Z,4.95
2023-01-04T02:09:58.359Z,5.30
2023-01-04T02:12:25.658Z,4.95
2023-01-04T02:14:52.620Z,5.35
2023-01-04T02:17:30.369Z,4.97
2023-01-04T02:20:25.310Z,5.15
2023-01-04T02:23:27.811Z,5.50
2023-01-04T02:26:25.605Z,5.18
2023-01-04T02:29:21.068Z,6.32
2023-01-04T02:31:53.873Z,5.05
2023-01-04T02:34:28.703Z,5.93
2023-01-04T02:36:59.781Z,6.57
2023-01-04T02:39:38.543Z,8.15
2023-01-04T02:42:12.420Z,6.57
2023-01-04T02:44:43.682Z,5.18
2023-01-04T02:47:15.179Z,5.88
2023-01-04T02:49:41.971Z,5.88
2023-01-04T02:52:08.746Z,5.60
2023-01-04T02:54:36.080Z,5.50
2023-01-04T02:57:31.688Z,5.63
2023-01-04T03:00:24.246Z,5.82
2023-01-04T03:03:08.089Z,6.07
2023-01-04T03:05:44.308Z,5.40
2023-01-04T03:08:17.558Z,5.68
2023-01-04T03:10:47.865Z,6.20
2023-01-04T03:13:18.510Z,6.40
2023-01-04T03:15:50.180Z,5.70
2023-01-04T03:18:21.269Z,5.28
2023-01-04T03:20:49.887Z,5.43
2023-01-04T03:23:21.496Z,5.43
2023-01-04T03:25:52.013Z,4.90
2023-01-04T03:28:21.356Z,5.80
2023-01-04T03:31:04.446Z,5.47
2023-01-04T03:33:33.030Z,5.22
2023-01-04T03:36:07.828Z,5.10
2023-01-04T03:38:39.646Z,3.88
2023-01-04T03:41:16.541Z,4.22
2023-01-04T03:43:50.969Z,4.10
2023-01-04T03:46:21.619Z,4.15
2023-01-04T03:48:56.299Z,4.18
2023-01-04T03:51:26.154Z,3.97
2023-01-04T03:53:59.357Z,3.90
2023-01-04T03:56:28.785Z,4.13
2023-01-04T03:58:55.621Z,4.30
2023-01-04T04:01:25.086Z,4.47
2023-01-04T04:03:53.686Z,4.03
2023-01-04T04:06:20.432Z,4.80
2023-01-04T04:08:47.123Z,4.45
2023-01-04T04:11:13.900Z,3.50
2023-01-04T04:13:40.659Z,4.03
2023-01-04T04:16:07.788Z,4.07
2023-01-04T04:18:34.539Z,3.75
2023-01-04T04:21:02.644Z,4.15
2023-01-04T04:23:29.356Z,3.83
2023-01-04T04:25:56.122Z,4.32
2023-01-04T04:28:22.990Z,3.70
2023-01-04T04:30:50.362Z,3.83
2023-01-04T04:33:17.294Z,3.90
2023-01-04T04:35:44.096Z,3.72
2023-01-04T04:38:12.149Z,4.28
2023-01-04T04:40:39.041Z,4.00
2023-01-04T04:43:08.920Z,3.80
2023-01-04T04:45:35.704Z,3.97
2023-01-04T04:48:02.425Z,3.90
2023-01-04T04:50:29.112Z,4.03
2023-01-04T04:52:56.516Z,4.00
2023-01-04T04:55:24.636Z,3.80
2023-01-04T04:57:51.517Z,3.70
2023-01-04T05:00:18.268Z,3.30
2023-01-04T05:02:45.103Z,3.25
2023-01-04T05:05:12.015Z,3.90
2023-01-04T05:07:38.811Z,3.92
2023-01-04T05:10:06.457Z,3.67
2023-01-04T05:12:34.593Z,3.50
2023-01-04T05:15:01.330Z,3.65
2023-01-04T05:17:28.022Z,3.40
2023-01-04T05:19:54.799Z,3.72
2023-01-04T05:22:21.535Z,3.28
2023-01-04T05:24:48.247Z,4.05
2023-01-04T05:27:15.027Z,3.60
2023-01-04T05:29:43.097Z,3.70
2023-01-04T05:32:09.858Z,4.57
2023-01-04T05:34:36.721Z,4.28
2023-01-04T05:37:03.453Z,4.07
2023-01-04T05:39:30.155Z,5.20
2023-01-04T05:41:56.889Z,3.83
2023-01-04T05:44:23.607Z,3.10
2023-01-04T05:46:51.658Z,3.78
2023-01-04T05:49:18.383Z,3.55
2023-01-04T05:51:45.090Z,3.25
2023-01-04T05:54:12.552Z,3.60
2023-01-04T05:56:41.188Z,3.70
2023-01-04T05:59:07.942Z,3.65
2023-01-04T06:01:34.701Z,3.33
2023-01-04T06:04:02.814Z,3.28
2023-01-04T06:06:29.628Z,3.42
2023-01-04T06:08:56.337Z,3.35
2023-01-04T06:11:27.593Z,3.85
2023-01-04T06:13:54.736Z,3.70
2023-01-04T06:16:21.463Z,3.10
2023-01-04T06:18:48.318Z,3.65
2023-01-04T06:21:16.455Z,3.80
2023-01-04T06:23:43.173Z,3.92
2023-01-04T06:26:09.971Z,3.33
2023-01-04T06:28:40.703Z,3.70
2023-01-04T06:31:09.747Z,3.22
2023-01-04T06:33:37.219Z,3.15
2023-01-04T06:36:04.680Z,3.38
2023-01-04T06:38:33.346Z,3.88
2023-01-04T06:41:00.331Z,3.45
2023-01-04T06:43:27.115Z,3.40
2023-01-04T06:45:53.856Z,2.92
2023-01-04T06:48:20.621Z,3.38
2023-01-04T06:50:47.346Z,3.78
2023-01-04T06:53:14.103Z,3.72
2023-01-04T06:55:46.111Z,4.10
2023-01-04T06:58:12.887Z,3.42
2023-01-04T07:00:39.984Z,3.22
2023-01-04T07:03:13.683Z,3.58
2023-01-04T07:05:42.758Z,3.45
2023-01-04T07:08:09.617Z,3.47
2023-01-04T07:10:36.907Z,3.72
2023-01-04T07:13:05.094Z,3.10
2023-01-04T07:15:38.090Z,3.08
2023-01-04T07:18:07.151Z,3.25
2023-01-04T07:20:33.874Z,3.70
2023-01-04T07:23:00.605Z,3.83
2023-01-04T07:25:27.375Z,4.45
2023-01-04T07:27:55.356Z,3.20
2023-01-04T07:30:24.145Z,4.07
2023-01-04T07:32:52.211Z,3.30
2023-01-04T07:35:19.207Z,3.95
2023-01-04T07:37:47.913Z,4.35
2023-01-04T07:40:16.759Z,3.95
2023-01-04T07:42:43.593Z,3.88
2023-01-04T07:45:10.676Z,4.60
2023-01-04T07:47:38.770Z,4.22
2023-01-04T07:50:06.353Z,3.30
2023-01-04T07:52:33.083Z,2.92
2023-01-04T07:54:59.841Z,3.92
2023-01-04T07:57:26.574Z,3.78
2023-01-04T07:59:53.335Z,2.78
2023-01-04T08:02:20.181Z,3.72
2023-01-04T08:04:48.491Z,2.95
2023-01-04T08:07:15.277Z,2.67
2023-01-04T08:09:41.977Z,2.47
2023-01-04T08:12:08.861Z,2.42
2023-01-04T08:14:35.600Z,3.72
2023-01-04T08:17:02.343Z,2.60
2023-01-04T08:19:29.204Z,3.60
2023-01-04T08:21:57.275Z,3.30
2023-01-04T08:24:24.358Z,4.05
2023-01-04T08:26:51.155Z,4.00
2023-01-04T08:29:17.885Z,3.40
2023-01-04T08:31:44.660Z,3.33
2023-01-04T08:34:11.433Z,3.42
2023-01-04T08:36:45.978Z,3.25
2023-01-04T08:39:14.049Z,3.38
2023-01-04T08:41:58.014Z,3.85
2023-01-04T08:44:27.567Z,3.67
2023-01-04T08:46:55.083Z,2.78
2023-01-04T08:49:22.633Z,3.33
2023-01-04T08:51:49.700Z,2.95
2023-01-04T08:54:18.041Z,2.97
2023-01-04T08:56:45.007Z,2.95
2023-01-04T08:59:12.989Z,2.22
2023-01-04T09:01:40.122Z,2.38
2023-01-04T09:04:07.147Z,2.83
2023-01-04T09:06:34.013Z,2.95
2023-01-04T09:09:00.818Z,3.13
2023-01-04T09:11:28.906Z,3.45
2023-01-04T09:14:02.421Z,1.70
2023-01-04T09:16:33.645Z,2.95
2023-01-04T09:19:00.441Z,3.72
2023-01-04T09:21:27.329Z,3.05
2023-01-04T09:23:54.159Z,2.95
2023-01-04T09:26:23.060Z,2.83
2023-01-04T09:28:54.177Z,2.38
2023-01-04T09:31:23.298Z,2.42
2023-01-04T09:36:37.514Z,1.95
2023-01-04T09:39:04.735Z,2.22
2023-01-04T09:41:35.272Z,2.95
2023-01-04T09:44:13.399Z,3.10
2023-01-04T09:46:47.613Z,2.38
2023-01-04T09:49:19.744Z,2.50
2023-01-04T09:51:55.340Z,2.60
2023-01-04T09:56:57.644Z,2.08
2023-01-04T09:59:30.038Z,2.22
2023-01-04T10:02:01.608Z,2.03
2023-01-04T10:04:39.726Z,2.78
2023-01-04T10:07:16.478Z,1.80
2023-01-04T10:09:43.255Z,2.08
2023-01-04T10:12:20.739Z,1.77
2023-01-04T10:15:03.736Z,2.33
2023-01-04T10:24:15.737Z,2.00
2023-01-04T10:26:46.451Z,2.40
2023-01-04T10:29:33.322Z,2.53
2023-01-04T10:32:05.929Z,2.40
2023-01-04T10:34:38.824Z,2.20
2023-01-04T10:37:12.975Z,2.35
2023-01-04T10:42:15.555Z,1.75
2023-01-04T10:44:50.778Z,2.50
2023-01-04T10:47:26.933Z,2.22
2023-01-04T10:49:57.964Z,1.70
2023-01-04T10:52:28.911Z,1.48
2023-01-04T10:55:00.797Z,1.42
2023-01-04T10:57:35.348Z,2.13
2023-01-04T11:00:05.260Z,1.30
2023-01-04T11:02:40.442Z,1.38
2023-01-04T11:05:16.208Z,1.40
2023-01-04T11:07:49.309Z,1.30
2023-01-04T11:10:23.800Z,1.35
2023-01-04T11:12:50.635Z,0.93
2023-01-04T11:15:17.389Z,1.00
2023-01-04T11:17:47.010Z,1.27
2023-01-04T11:20:13.843Z,1.00
2023-01-04T11:22:45.327Z,1.70
2023-01-04T11:28:09.173Z,1.17
2023-01-04T11:30:48.297Z,0.63
2023-01-04T11:33:18.713Z,0.85
2023-01-04T11:35:47.523Z,1.10
2023-01-04T11:38:16.828Z,1.00
2023-01-04T11:40:56.483Z,0.60
2023-01-04T11:43:24.009Z,0.98
2023-01-04T11:45:55.975Z,0.80
2023-01-04T11:48:37.233Z,0.77
2023-01-04T11:51:05.368Z,1.13
2023-01-04T11:53:33.771Z,0.90
2023-01-04T11:56:16.524Z,0.80
2023-01-04T11:58:45.157Z,0.77
2023-01-04T12:01:24.766Z,0.70
2023-01-04T12:03:52.960Z,0.95
2023-01-04T12:06:36.404Z,0.75
2023-01-04T12:09:03.517Z,0.80
2023-01-04T12:11:32.213Z,0.50
2023-01-04T12:13:59.719Z,0.60
2023-01-04T12:16:44.773Z,0.90
2023-01-04T12:19:16.604Z,0.50
2023-01-04T12:21:45.778Z,0.52
2023-01-04T12:24:18.519Z,0.80
2023-01-04T12:26:45.729Z,0.68
2023-01-04T12:29:58.331Z,0.57
2023-01-04T12:32:42.616Z,0.80
2023-01-04T12:36:01.198Z,0.77
2023-01-04T12:39:04.973Z,0.50
2023-01-04T12:42:14.392Z,0.60
2023-01-04T12:45:09.232Z,0.70
2023-01-04T12:47:43.050Z,0.80
2023-01-04T12:50:11.206Z,0.88
2023-01-04T12:53:02.305Z,0.70
2023-01-04T12:55:58.529Z,0.60
2023-01-04T13:02:17.678Z,0.70
2023-01-04T13:04:44.765Z,0.77
2023-01-04T13:07:17.972Z,0.52
2023-01-04T13:09:51.727Z,0.82
2023-01-04T13:12:54.256Z,0.70
2023-01-04T13:15:38.937Z,0.70
2023-01-04T13:18:28.176Z,0.60
2023-01-04T13:20:55.809Z,0.90
2023-01-04T13:23:24.251Z,0.68
2023-01-04T13:25:51.092Z,1.08
2023-01-04T13:28:19.153Z,0.90
2023-01-04T13:30:47.318Z,0.52
2023-01-04T13:33:27.353Z,0.68
2023-01-04T13:36:03.491Z,0.55
2023-01-04T13:38:33.424Z,0.50
2023-01-04T13:41:00.393Z,0.70
2023-01-04T13:43:46.500Z,0.77
2023-01-04T13:46:17.794Z,0.68
2023-01-04T13:48:46.339Z,0.40
2023-01-04T13:51:15.528Z,0.85
2023-01-04T13:53:42.664Z,0.80
2023-01-04T13:56:19.454Z,0.60
2023-01-04T13:58:46.253Z,0.60
2023-01-04T14:01:17.764Z,0.70
2023-01-04T14:03:48.303Z,0.70
2023-01-04T14:06:19.464Z,0.70
2023-01-04T14:08:52.609Z,0.68
2023-01-04T14:11:22.537Z,0.93
2023-01-04T14:13:49.331Z,0.70
2023-01-04T14:16:17.782Z,0.50
2023-01-04T14:18:44.582Z,0.77
2023-01-04T14:21:16.556Z,0.90
2023-01-04T14:23:43.314Z,0.70
2023-01-04T14:26:31.120Z,0.60
2023-01-04T14:28:57.861Z,0.40
2023-01-04T14:31:32.959Z,0.57
2023-01-04T14:34:07.379Z,0.80
2023-01-04T14:36:37.448Z,0.40
2023-01-04T14:39:28.264Z,0.82
2023-01-04T14:41:56.564Z,0.50
2023-01-04T14:44:24.900Z,0.60
2023-01-04T14:46:54.873Z,0.63
2023-01-04T14:49:21.998Z,0.73
2023-01-04T14:51:51.494Z,0.77
2023-01-04T14:54:24.553Z,0.60
2023-01-04T14:56:52.795Z,0.80
2023-01-04T14:59:19.519Z,0.55
2023-01-04T15:01:46.315Z,0.65
2023-01-04T15:04:14.627Z,0.47
2023-01-04T15:06:49.412Z,0.50
2023-01-04T15:09:16.157Z,0.50
2023-01-04T15:11:42.983Z,0.50
2023-01-04T15:14:09.741Z,0.50
2023-01-04T15:16:36.558Z,0.50
2023-01-04T15:19:03.517Z,0.80
2023-01-04T15:21:34.101Z,0.47
2023-01-04T15:24:06.109Z,0.82
2023-01-04T15:26:32.851Z,0.93
2023-01-04T15:28:59.567Z,0.57
2023-01-04T15:31:32.374Z,0.60
2023-01-04T15:34:03.567Z,0.40
2023-01-04T15:36:31.772Z,0.80
2023-01-04T15:38:58.515Z,0.40
2023-01-04T15:41:25.285Z,0.55
2023-01-04T15:43:52.249Z,0.77
2023-01-04T15:46:19.028Z,0.80
2023-01-04T15:48:45.835Z,0.80
2023-01-04T15:51:12.549Z,0.70
2023-01-04T15:53:40.679Z,0.70
2023-01-04T15:56:09.217Z,0.80
2023-01-04T15:58:36.051Z,0.57
2023-01-04T16:01:08.428Z,0.80
2023-01-04T16:03:35.446Z,0.50
2023-01-04T16:06:05.513Z,0.75
2023-01-04T16:08:32.274Z,0.60
2023-01-04T16:11:08.639Z,0.63
2023-01-04T16:13:35.491Z,0.55
2023-01-04T16:16:02.373Z,0.63
2023-01-04T16:18:32.523Z,0.75
2023-01-04T16:20:59.705Z,0.30
2023-01-04T16:23:27.310Z,0.75
2023-01-04T16:26:05.701Z,0.77
2023-01-04T16:28:32.788Z,1.00
2023-01-04T16:30:59.580Z,0.43
2023-01-04T16:33:26.433Z,0.50
2023-01-04T16:35:59.313Z,0.32
2023-01-04T16:38:26.559Z,1.10
2023-01-04T16:40:58.168Z,1.15
2023-01-04T16:43:26.800Z,0.88
2023-01-04T16:46:16.975Z,0.70
2023-01-04T16:48:44.805Z,0.77
2023-01-04T16:51:12.666Z,0.98
2023-01-04T16:53:39.460Z,0.70
2023-01-04T16:56:07.476Z,0.85
2023-01-04T16:58:35.600Z,0.68
2023-01-04T17:01:07.071Z,0.85
2023-01-04T17:03:33.842Z,0.90
2023-01-04T17:06:00.647Z,0.90
2023-01-04T17:08:27.588Z,0.55
2023-01-04T17:10:54.872Z,0.80
2023-01-04T17:13:22.949Z,0.50
2023-01-04T17:15:51.041Z,0.43
2023-01-04T17:18:17.770Z,0.60
2023-01-04T17:20:44.520Z,0.50
2023-01-04T17:23:11.243Z,1.33
2023-01-04T17:25:38.176Z,0.75
2023-01-04T17:28:04.924Z,0.93
2023-01-04T17:30:31.642Z,0.80
2023-01-04T17:32:59.717Z,0.57
2023-01-04T17:35:26.485Z,0.80
2023-01-04T17:37:53.233Z,0.80
2023-01-04T17:40:23.285Z,0.60
2023-01-04T17:42:50.737Z,0.52
2023-01-04T17:45:17.477Z,0.90
2023-01-04T17:47:44.285Z,0.90
2023-01-04T17:50:12.359Z,0.98
2023-01-04T17:52:39.112Z,0.90
2023-01-04T17:55:06.874Z,0.50
2023-01-04T17:57:33.580Z,0.88
2023-01-04T18:00:00.370Z,0.90
2023-01-04T18:02:27.196Z,0.73
2023-01-04T18:04:53.979Z,0.50
2023-01-04T18:07:22.037Z,1.13
2023-01-04T18:09:48.812Z,0.88
2023-01-04T18:12:15.528Z,0.65
2023-01-04T18:14:42.236Z,1.02
2023-01-04T18:17:09.374Z,1.15
2023-01-04T18:19:37.426Z,1.20
2023-01-04T18:22:06.025Z,0.95
2023-01-04T18:24:37.186Z,0.98
2023-01-04T18:27:22.534Z,0.65
2023-01-04T18:29:51.862Z,1.10
2023-01-04T18:32:18.798Z,0.90
2023-01-04T18:34:45.516Z,0.70
2023-01-04T18:37:12.267Z,1.23
2023-01-04T18:39:40.741Z,0.70
2023-01-04T18:42:07.475Z,0.38
2023-01-04T18:44:35.432Z,0.77
2023-01-04T18:47:03.278Z,0.90
2023-01-04T18:49:30.262Z,0.70
2023-01-04T18:51:57.000Z,1.08
2023-01-04T18:54:23.710Z,0.73
2023-01-04T18:56:57.306Z,1.02
2023-01-04T18:59:27.901Z,1.23
2023-01-04T19:01:54.754Z,0.90
2023-01-04T19:04:21.595Z,0.32
2023-01-04T19:06:48.268Z,0.93
2023-01-04T19:09:14.936Z,0.68
2023-01-04T19:11:41.640Z,0.70
2023-01-04T19:14:09.771Z,0.88
2023-01-04T19:16:36.571Z,0.80
2023-01-04T19:19:03.313Z,0.68
2023-01-04T19:21:30.062Z,0.50
2023-01-04T19:23:56.871Z,1.08
2023-01-04T19:26:23.894Z,0.60
2023-01-04T19:28:51.502Z,1.25
2023-01-04T19:31:21.240Z,0.80
2023-01-04T19:33:48.671Z,0.60
2023-01-04T19:36:17.445Z,0.68
2023-01-04T19:38:44.301Z,0.93
2023-01-04T19:41:16.039Z,0.80
2023-01-04T19:43:42.760Z,0.77
2023-01-04T19:46:10.694Z,0.88
2023-01-04T19:48:39.141Z,0.70
2023-01-04T19:51:07.709Z,0.73
2023-01-04T19:53:34.776Z,0.70
2023-01-04T19:56:01.551Z,0.60
2023-01-04T19:58:29.261Z,1.00
2023-01-04T20:00:56.600Z,0.50
2023-01-04T20:03:24.199Z,0.90
2023-01-04T20:05:52.875Z,0.73
2023-01-04T20:08:20.592Z,0.63
2023-01-04T20:10:53.755Z,0.32
2023-01-04T20:13:20.538Z,0.55
2023-01-04T20:15:47.330Z,0.65
2023-01-04T20:18:14.503Z,0.50
2023-01-04T20:20:41.700Z,0.82
2023-01-04T20:23:09.823Z,0.75
2023-01-04T20:25:39.033Z,0.68
2023-01-04T20:28:05.814Z,0.45
2023-01-04T20:30:32.639Z,0.57
2023-01-04T20:32:59.538Z,0.50
2023-01-04T20:35:26.269Z,0.80
2023-01-04T20:37:53.002Z,0.63
2023-01-04T20:40:21.089Z,0.52
2023-01-04T20:42:47.867Z,0.55
2023-01-04T20:45:14.655Z,0.60
2023-01-04T20:47:41.438Z,0.43
2023-01-04T20:50:08.500Z,0.80
2023-01-04T20:52:35.241Z,0.57
2023-01-04T20:55:01.989Z,0.70
2023-01-04T20:57:31.130Z,0.47
2023-01-04T20:59:57.892Z,0.80
2023-01-04T21:02:24.747Z,0.70
2023-01-04T21:04:51.520Z,0.60
2023-01-04T21:07:18.243Z,0.45
2023-01-04T21:09:44.960Z,0.60
2023-01-04T21:12:12.635Z,0.60
2023-01-04T21:14:40.701Z,0.70
2023-01-04T21:17:07.461Z,0.70
2023-01-04T21:19:34.205Z,0.55
2023-01-04T21:22:01.005Z,0.50
2023-01-04T21:24:27.784Z,0.60
2023-01-04T21:26:54.521Z,0.60
2023-01-04T21:29:22.079Z,0.70
2023-01-04T21:31:50.139Z,0.40
2023-01-04T21:34:22.608Z,0.65
2023-01-04T21:36:49.810Z,0.47
2023-01-04T21:39:16.530Z,0.40
2023-01-04T21:41:47.872Z,0.50
2023-01-04T21:44:15.002Z,0.35
2023-01-04T21:46:41.760Z,0.60
2023-01-04T21:49:10.026Z,0.40
2023-01-04T21:51:36.774Z,0.70
2023-01-04T21:54:03.884Z,0.45
2023-01-04T21:56:30.609Z,0.50
2023-01-04T21:58:57.663Z,0.60
2023-01-04T22:01:30.955Z,1.00
2023-01-04T22:04:01.233Z,0.70
2023-01-04T22:06:29.355Z,0.45
2023-01-04T22:08:56.217Z,0.45
2023-01-04T22:11:23.141Z,0.40
2023-01-04T22:13:49.939Z,0.45
2023-01-04T22:16:17.265Z,0.50
2023-01-04T22:18:47.444Z,0.38
2023-01-04T22:21:15.871Z,0.30
2023-01-04T22:23:44.340Z,0.50
2023-01-04T22:26:11.215Z,0.38
2023-01-04T22:28:38.039Z,0.30
2023-01-04T22:31:06.180Z,0.57
2023-01-04T22:33:33.773Z,0.70
2023-01-04T22:36:04.183Z,0.30
2023-01-04T22:38:30.937Z,0.70
2023-01-04T22:40:59.005Z,0.40
2023-01-04T22:43:25.706Z,0.60
2023-01-04T22:45:59.412Z,0.68
2023-01-04T22:48:26.173Z,0.70
2023-01-04T22:50:53.219Z,0.85
2023-01-04T22:53:19.945Z,0.57
2023-01-04T22:56:17.690Z,0.60
2023-01-04T22:58:36.099Z,0.60
2023-01-04T23:01:02.929Z,0.85
2023-01-04T23:03:31.842Z,0.50
2023-01-04T23:05:58.834Z,0.65
2023-01-04T23:08:25.774Z,0.73
2023-01-04T23:10:52.473Z,0.50
2023-01-04T23:13:19.189Z,1.10
2023-01-04T23:15:47.352Z,0.70
2023-01-04T23:18:14.124Z,0.45
2023-01-04T23:20:40.847Z,0.80
2023-01-04T23:23:07.560Z,0.80
2023-01-04T23:25:34.665Z,0.52
2023-01-04T23:28:01.426Z,0.60
2023-01-04T23:30:28.160Z,0.32
2023-01-04T23:32:56.277Z,0.60
2023-01-04T23:35:23.002Z,0.70
2023-01-04T23:37:49.724Z,0.50
2023-01-04T23:40:16.582Z,0.60
2023-01-04T23:42:43.316Z,0.70
2023-01-04T23:45:10.466Z,0.60
2023-01-04T23:47:37.190Z,0.57
2023-01-04T23:50:05.895Z,0.50
2023-01-04T23:52:32.638Z,0.50
2023-01-04T23:54:59.336Z,0.80
2023-01-04T23:57:26.039Z,0.32
2023-01-04T23:59:52.740Z,0.40
